sensor_id;sensor_type;location;lat;lon;timestamp;pressure;altitude;pressure_sealevel;temperature;humidity
50684;BME280;36654;45.042;38.994;2023-04-23T00:01:57;101168.53;;;10.52;79.87
50684;BME280;36654;45.042;38.994;2023-04-23T00:04:24;101165.03;;;10.53;79.51
50684;BME280;36654;45.042;38.994;2023-04-23T00:06:51;101165.03;;;10.53;79.56
50684;BME280;36654;45.042;38.994;2023-04-23T00:09:17;101163.34;;;10.58;79.28
50684;BME280;36654;45.042;38.994;2023-04-23T00:11:43;101166.91;;;10.61;78.79
50684;BME280;36654;45.042;38.994;2023-04-23T00:14:10;101160.72;;;10.58;78.62
50684;BME280;36654;45.042;38.994;2023-04-23T00:16:37;101159.88;;;10.63;78.40
50684;BME280;36654;45.042;38.994;2023-04-23T00:19:03;101148.25;;;10.54;78.41
50684;BME280;36654;45.042;38.994;2023-04-23T00:21:29;101169.69;;;10.67;78.50
50684;BME280;36654;45.042;38.994;2023-04-23T00:23:55;101151.13;;;10.67;78.07
50684;BME280;36654;45.042;38.994;2023-04-23T00:26:21;101157.28;;;10.66;77.57
50684;BME280;36654;45.042;38.994;2023-04-23T00:28:46;101163.56;;;10.71;77.39
50684;BME280;36654;45.042;38.994;2023-04-23T00:31:12;101111.81;;;10.43;77.42
50684;BME280;36654;45.042;38.994;2023-04-23T00:33:38;101157.44;;;10.73;77.24
50684;BME280;36654;45.042;38.994;2023-04-23T00:36:03;101129.66;;;10.51;76.96
50684;BME280;36654;45.042;38.994;2023-04-23T00:38:29;101160.09;;;10.75;76.97
50684;BME280;36654;45.042;38.994;2023-04-23T00:40:55;101165.41;;;10.75;76.63
50684;BME280;36654;45.042;38.994;2023-04-23T00:43:20;101158.38;;;10.77;76.88
50684;BME280;36654;45.042;38.994;2023-04-23T00:45:47;101180.59;;;10.84;76.90
50684;BME280;36654;45.042;38.994;2023-04-23T00:48:13;101182.38;;;10.85;76.96
50684;BME280;36654;45.042;38.994;2023-04-23T00:50:40;101146.75;;;10.70;76.88
50684;BME280;36654;45.042;38.994;2023-04-23T00:53:06;101173.59;;;10.89;76.90
50684;BME280;36654;45.042;38.994;2023-04-23T00:55:32;101169.13;;;10.86;76.90
50684;BME280;36654;45.042;38.994;2023-04-23T00:57:59;101081.66;;;10.36;76.70
50684;BME280;36654;45.042;38.994;2023-04-23T01:00:25;101181.47;;;10.84;76.53
50684;BME280;36654;45.042;38.994;2023-04-23T01:02:51;101179.63;;;10.80;76.56
50684;BME280;36654;45.042;38.994;2023-04-23T01:05:18;101178.78;;;10.81;76.52
50684;BME280;36654;45.042;38.994;2023-04-23T01:07:45;101179.63;;;10.80;76.40
50684;BME280;36654;45.042;38.994;2023-04-23T01:10:11;101177.84;;;10.79;76.18
50684;BME280;36654;45.042;38.994;2023-04-23T01:12:37;101162.63;;;10.67;75.86
50684;BME280;36654;45.042;38.994;2023-04-23T01:15:03;101192.09;;;10.84;75.73
50684;BME280;36654;45.042;38.994;2023-04-23T01:17:30;101179.66;;;10.83;75.29
50684;BME280;36654;45.042;38.994;2023-04-23T01:19:56;101128.84;;;10.57;74.88
50684;BME280;36654;45.042;38.994;2023-04-23T01:22:23;101186.03;;;10.91;74.75
50684;BME280;36654;45.042;38.994;2023-04-23T01:24:48;101203.72;;;10.91;74.63
50684;BME280;36654;45.042;38.994;2023-04-23T01:27:15;101142.19;;;10.62;74.29
50684;BME280;36654;45.042;38.994;2023-04-23T01:29:41;101137.81;;;10.65;74.23
50684;BME280;36654;45.042;38.994;2023-04-23T01:32:07;101199.34;;;10.94;74.03
50684;BME280;36654;45.042;38.994;2023-04-23T01:34:33;101201.00;;;10.89;74.16
50684;BME280;36654;45.042;38.994;2023-04-23T01:37:01;101184.09;;;10.83;74.23
50684;BME280;36654;45.042;38.994;2023-04-23T01:39:26;101193.97;;;10.91;74.04
50684;BME280;36654;45.042;38.994;2023-04-23T01:41:52;101183.41;;;10.94;74.09
50684;BME280;36654;45.042;38.994;2023-04-23T01:44:18;101188.69;;;10.91;73.92
50684;BME280;36654;45.042;38.994;2023-04-23T01:46:44;101139.63;;;10.66;74.08
50684;BME280;36654;45.042;38.994;2023-04-23T01:49:10;101191.34;;;10.93;74.25
50684;BME280;36654;45.042;38.994;2023-04-23T01:51:36;101205.56;;;10.96;74.16
50684;BME280;36654;45.042;38.994;2023-04-23T01:54:01;101161.06;;;10.78;74.02
50684;BME280;36654;45.042;38.994;2023-04-23T01:56:27;101199.34;;;10.94;74.17
50684;BME280;36654;45.042;38.994;2023-04-23T01:58:55;101209.06;;;10.94;74.24
50684;BME280;36654;45.042;38.994;2023-04-23T02:01:21;101208.03;;;10.87;74.27
50684;BME280;36654;45.042;38.994;2023-04-23T02:03:49;101220.56;;;10.94;74.21
50684;BME280;36654;45.042;38.994;2023-04-23T02:06:15;101217.03;;;10.95;74.42
50684;BME280;36654;45.042;38.994;2023-04-23T02:08:41;101223.19;;;10.94;74.55
50684;BME280;36654;45.042;38.994;2023-04-23T02:11:06;101220.56;;;10.94;74.48
50684;BME280;36654;45.042;38.994;2023-04-23T02:13:32;101218.78;;;10.93;74.65
50684;BME280;36654;45.042;38.994;2023-04-23T02:15:58;101216.94;;;10.89;74.78
50684;BME280;36654;45.042;38.994;2023-04-23T02:18:24;101191.88;;;10.72;74.85
50684;BME280;36654;45.042;38.994;2023-04-23T02:20:50;101231.16;;;10.94;74.91
50684;BME280;36654;45.042;38.994;2023-04-23T02:23:15;101217.72;;;10.84;74.94
50684;BME280;36654;45.042;38.994;2023-04-23T02:25:41;101235.72;;;11.01;74.65
50684;BME280;36654;45.042;38.994;2023-04-23T02:28:07;101240.97;;;10.98;74.90
50684;BME280;36654;45.042;38.994;2023-04-23T02:30:36;101232.09;;;10.98;74.85
50684;BME280;36654;45.042;38.994;2023-04-23T02:33:02;101208.88;;;10.85;74.71
50684;BME280;36654;45.042;38.994;2023-04-23T02:35:28;101229.47;;;10.99;74.83
50684;BME280;36654;45.042;38.994;2023-04-23T02:37:54;101247.34;;;11.10;74.79
50684;BME280;36654;45.042;38.994;2023-04-23T02:40:20;101241.06;;;11.05;74.61
50684;BME280;36654;45.042;38.994;2023-04-23T02:42:47;101241.09;;;11.08;74.73
50684;BME280;36654;45.042;38.994;2023-04-23T02:45:13;101250.88;;;11.09;74.75
50684;BME280;36654;45.042;38.994;2023-04-23T02:47:38;101247.44;;;11.14;74.83
50684;BME280;36654;45.042;38.994;2023-04-23T02:50:05;101252.72;;;11.14;74.81
50684;BME280;36654;45.042;38.994;2023-04-23T02:52:31;101262.53;;;11.18;74.74
50684;BME280;36654;45.042;38.994;2023-04-23T02:54:58;101252.81;;;11.19;74.63
50684;BME280;36654;45.042;38.994;2023-04-23T02:57:24;101255.50;;;11.22;74.73
50684;BME280;36654;45.042;38.994;2023-04-23T02:59:50;101262.56;;;11.20;74.68
50684;BME280;36654;45.042;38.994;2023-04-23T03:02:15;101261.78;;;11.27;74.65
50684;BME280;36654;45.042;38.994;2023-04-23T03:04:41;101262.66;;;11.26;74.77
50684;BME280;36654;45.042;38.994;2023-04-23T03:07:07;101261.78;;;11.27;74.72
50684;BME280;36654;45.042;38.994;2023-04-23T03:09:32;101274.25;;;11.31;74.83
50684;BME280;36654;45.042;38.994;2023-04-23T03:11:58;101279.56;;;11.31;74.83
50684;BME280;36654;45.042;38.994;2023-04-23T03:14:24;101284.91;;;11.34;74.75
50684;BME280;36654;45.042;38.994;2023-04-23T03:16:49;101281.38;;;11.35;74.57
50684;BME280;36654;45.042;38.994;2023-04-23T03:19:15;101286.78;;;11.38;74.56
50684;BME280;36654;45.042;38.994;2023-04-23T03:21:41;101284.16;;;11.41;74.66
50684;BME280;36654;45.042;38.994;2023-04-23T03:24:06;101293.88;;;11.42;74.42
50684;BME280;36654;45.042;38.994;2023-04-23T03:26:32;101293.94;;;11.45;74.12
50684;BME280;36654;45.042;38.994;2023-04-23T03:28:59;101281.59;;;11.48;74.15
50684;BME280;36654;45.042;38.994;2023-04-23T03:31:24;101279.00;;;11.52;73.89
50684;BME280;36654;45.042;38.994;2023-04-23T03:33:50;101293.25;;;11.57;74.06
50684;BME280;36654;45.042;38.994;2023-04-23T03:36:16;101301.34;;;11.65;74.10
50684;BME280;36654;45.042;38.994;2023-04-23T03:38:42;101281.00;;;11.67;73.89
50684;BME280;36654;45.042;38.994;2023-04-23T03:41:08;101274.88;;;11.71;73.83
50684;BME280;36654;45.042;38.994;2023-04-23T03:43:33;101250.88;;;11.63;73.43
50684;BME280;36654;45.042;38.994;2023-04-23T03:45:59;101292.19;;;12.01;72.92
50684;BME280;36654;45.042;38.994;2023-04-23T03:48:25;101284.44;;;12.19;72.48
50684;BME280;36654;45.042;38.994;2023-04-23T03:50:51;101297.94;;;12.35;71.77
50684;BME280;36654;45.042;38.994;2023-04-23T03:53:16;101291.81;;;12.39;71.02
50684;BME280;36654;45.042;38.994;2023-04-23T03:55:42;101287.44;;;12.44;70.81
50684;BME280;36654;45.042;38.994;2023-04-23T03:58:08;101256.19;;;12.27;70.26
50684;BME280;36654;45.042;38.994;2023-04-23T04:00:34;101306.19;;;12.56;70.19
50684;BME280;36654;45.042;38.994;2023-04-23T04:02:59;101292.97;;;12.61;70.08
50684;BME280;36654;45.042;38.994;2023-04-23T04:05:27;101300.03;;;12.62;69.75
50684;BME280;36654;45.042;38.994;2023-04-23T04:07:53;101304.69;;;12.80;69.48
50684;BME280;36654;45.042;38.994;2023-04-23T04:10:19;101305.72;;;12.94;68.95
50684;BME280;36654;45.042;38.994;2023-04-23T04:12:45;101319.16;;;13.06;68.45
50684;BME280;36654;45.042;38.994;2023-04-23T04:15:12;101303.19;;;13.08;68.08
50684;BME280;36654;45.042;38.994;2023-04-23T04:17:38;101308.63;;;13.20;67.80
50684;BME280;36654;45.042;38.994;2023-04-23T04:20:06;101319.63;;;13.52;67.47
50684;BME280;36654;45.042;38.994;2023-04-23T04:22:35;101305.75;;;13.96;66.63
50684;BME280;36654;45.042;38.994;2023-04-23T04:25:01;101306.13;;;14.72;64.67
50684;BME280;36654;45.042;38.994;2023-04-23T04:27:26;101277.75;;;15.57;61.27
50684;BME280;36654;45.042;38.994;2023-04-23T04:29:52;101305.91;;;16.91;57.53
50684;BME280;36654;45.042;38.994;2023-04-23T04:32:17;101260.69;;;17.64;53.31
50684;BME280;36654;45.042;38.994;2023-04-23T04:34:43;101298.13;;;18.58;50.25
50684;BME280;36654;45.042;38.994;2023-04-23T04:37:12;101295.38;;;19.26;47.79
50684;BME280;36654;45.042;38.994;2023-04-23T04:39:40;101294.34;;;19.35;46.67
50684;BME280;36654;45.042;38.994;2023-04-23T04:42:06;101291.16;;;19.64;46.35
50684;BME280;36654;45.042;38.994;2023-04-23T04:44:32;101291.47;;;19.98;45.68
50684;BME280;36654;45.042;38.994;2023-04-23T04:46:58;101291.28;;;20.08;45.00
50684;BME280;36654;45.042;38.994;2023-04-23T04:49:24;101294.59;;;20.22;44.23
50684;BME280;36654;45.042;38.994;2023-04-23T04:51:49;101302.06;;;20.53;43.62
50684;BME280;36654;45.042;38.994;2023-04-23T04:54:15;101303.41;;;20.74;42.76
50684;BME280;36654;45.042;38.994;2023-04-23T04:56:41;101306.41;;;21.02;42.37
50684;BME280;36654;45.042;38.994;2023-04-23T04:59:06;101310.38;;;21.24;41.80
50684;BME280;36654;45.042;38.994;2023-04-23T05:01:32;101275.34;;;21.23;40.88
50684;BME280;36654;45.042;38.994;2023-04-23T05:03:58;101313.22;;;21.56;40.55
50684;BME280;36654;45.042;38.994;2023-04-23T05:06:23;101316.97;;;21.50;40.50
50684;BME280;36654;45.042;38.994;2023-04-23T05:08:49;101313.19;;;21.57;40.34
50684;BME280;36654;45.042;38.994;2023-04-23T05:11:19;101319.28;;;21.64;39.91
50684;BME280;36654;45.042;38.994;2023-04-23T05:13:47;101311.84;;;21.73;39.85
50684;BME280;36654;45.042;38.994;2023-04-23T05:16:13;101312.88;;;21.69;39.69
50684;BME280;36654;45.042;38.994;2023-04-23T05:18:39;101319.44;;;21.59;39.92
50684;BME280;36654;45.042;38.994;2023-04-23T05:21:06;101322.44;;;21.47;39.78
50684;BME280;36654;45.042;38.994;2023-04-23T05:23:32;101317.09;;;21.44;39.50
50684;BME280;36654;45.042;38.994;2023-04-23T05:25:58;101319.94;;;21.39;40.03
50684;BME280;36654;45.042;38.994;2023-04-23T05:28:24;101319.00;;;21.39;39.90
50684;BME280;36654;45.042;38.994;2023-04-23T05:30:50;101320.91;;;21.33;39.85
50684;BME280;36654;45.042;38.994;2023-04-23T05:33:16;101307.81;;;21.17;39.94
50684;BME280;36654;45.042;38.994;2023-04-23T05:35:41;101319.63;;;21.11;39.83
50684;BME280;36654;45.042;38.994;2023-04-23T05:38:07;101321.47;;;21.09;40.61
50684;BME280;36654;45.042;38.994;2023-04-23T05:40:33;101312.97;;;20.88;40.72
50684;BME280;36654;45.042;38.994;2023-04-23T05:42:59;101315.72;;;20.87;40.60
50684;BME280;36654;45.042;38.994;2023-04-23T05:45:25;101330.94;;;20.88;40.28
50684;BME280;36654;45.042;38.994;2023-04-23T05:47:51;101308.19;;;20.61;40.76
50684;BME280;36654;45.042;38.994;2023-04-23T05:50:17;101321.47;;;20.25;41.23
50684;BME280;36654;45.042;38.994;2023-04-23T05:52:43;101314.50;;;19.62;41.63
50684;BME280;36654;45.042;38.994;2023-04-23T05:55:09;101330.34;;;19.25;42.67
50684;BME280;36654;45.042;38.994;2023-04-23T05:57:38;101329.06;;;18.90;43.23
50684;BME280;36654;45.042;38.994;2023-04-23T06:00:04;101325.88;;;18.57;43.67
50684;BME280;36654;45.042;38.994;2023-04-23T06:02:30;101283.56;;;18.02;44.32
50684;BME280;36654;45.042;38.994;2023-04-23T06:04:58;101314.91;;;17.98;44.29
50684;BME280;36654;45.042;38.994;2023-04-23T06:07:23;101335.72;;;17.67;44.83
50684;BME280;36654;45.042;38.994;2023-04-23T06:09:49;101331.38;;;17.55;46.08
50684;BME280;36654;45.042;38.994;2023-04-23T06:12:15;101293.03;;;17.45;45.95
50684;BME280;36654;45.042;38.994;2023-04-23T06:14:40;101326.78;;;17.68;45.99
50684;BME280;36654;45.042;38.994;2023-04-23T06:17:06;101327.69;;;17.65;46.24
50684;BME280;36654;45.042;38.994;2023-04-23T06:19:32;101331.22;;;17.69;45.99
50684;BME280;36654;45.042;38.994;2023-04-23T06:21:57;101334.00;;;17.60;45.72
50684;BME280;36654;45.042;38.994;2023-04-23T06:24:23;101329.66;;;17.43;46.07
50684;BME280;36654;45.042;38.994;2023-04-23T06:26:49;101337.75;;;17.37;46.39
50684;BME280;36654;45.042;38.994;2023-04-23T06:29:14;101302.28;;;16.98;46.50
50684;BME280;36654;45.042;38.994;2023-04-23T06:31:40;101324.63;;;16.97;47.25
50684;BME280;36654;45.042;38.994;2023-04-23T06:34:06;101339.81;;;16.95;47.89
50684;BME280;36654;45.042;38.994;2023-04-23T06:36:31;101339.81;;;16.95;47.96
50684;BME280;36654;45.042;38.994;2023-04-23T06:38:57;101330.94;;;16.84;47.59
50684;BME280;36654;45.042;38.994;2023-04-23T06:41:23;101347.03;;;16.81;47.76
50684;BME280;36654;45.042;38.994;2023-04-23T06:43:49;101340.78;;;16.73;47.76
50684;BME280;36654;45.042;38.994;2023-04-23T06:46:15;101334.56;;;16.61;47.59
50684;BME280;36654;45.042;38.994;2023-04-23T06:48:40;101348.88;;;16.57;48.16
50684;BME280;36654;45.042;38.994;2023-04-23T06:51:06;101285.69;;;16.18;48.45
50684;BME280;36654;45.042;38.994;2023-04-23T06:53:32;101336.41;;;16.44;48.55
50684;BME280;36654;45.042;38.994;2023-04-23T06:55:58;101348.00;;;16.55;48.56
50684;BME280;36654;45.042;38.994;2023-04-23T06:58:24;101342.63;;;16.55;48.48
50684;BME280;36654;45.042;38.994;2023-04-23T07:00:56;101337.28;;;16.52;48.54
50684;BME280;36654;45.042;38.994;2023-04-23T07:03:25;101348.94;;;16.36;49.04
50684;BME280;36654;45.042;38.994;2023-04-23T07:05:51;101354.31;;;16.27;49.12
50684;BME280;36654;45.042;38.994;2023-04-23T07:08:16;101338.28;;;16.24;49.37
50684;BME280;36654;45.042;38.994;2023-04-23T07:10:42;101184.25;;;15.37;49.60
50684;BME280;36654;45.042;38.994;2023-04-23T07:13:08;101338.25;;;16.27;49.76
50684;BME280;36654;45.042;38.994;2023-04-23T07:15:33;101342.72;;;16.29;49.82
50684;BME280;36654;45.042;38.994;2023-04-23T07:17:59;101325.81;;;16.23;49.49
50684;BME280;36654;45.042;38.994;2023-04-23T07:20:25;101330.22;;;16.33;49.50
50684;BME280;36654;45.042;38.994;2023-04-23T07:22:51;101323.91;;;16.49;49.13
50684;BME280;36654;45.042;38.994;2023-04-23T07:25:17;101329.19;;;16.65;49.03
50684;BME280;36654;45.042;38.994;2023-04-23T07:27:42;101322.94;;;16.73;48.62
50684;BME280;36654;45.042;38.994;2023-04-23T07:30:08;101325.50;;;17.02;48.51
50684;BME280;36654;45.042;38.994;2023-04-23T07:32:34;101318.16;;;17.29;48.08
50684;BME280;36654;45.042;38.994;2023-04-23T07:35:00;101319.75;;;17.52;47.58
50684;BME280;36654;45.042;38.994;2023-04-23T07:37:26;101321.47;;;17.65;46.29
50684;BME280;36654;45.042;38.994;2023-04-23T07:39:51;101312.34;;;17.84;45.73
50684;BME280;36654;45.042;38.994;2023-04-23T07:42:18;101316.81;;;17.85;45.74
50684;BME280;36654;45.042;38.994;2023-04-23T07:44:43;101315.09;;;17.75;45.80
50684;BME280;36654;45.042;38.994;2023-04-23T07:47:09;101305.47;;;17.50;44.84
50684;BME280;36654;45.042;38.994;2023-04-23T07:49:35;101312.72;;;17.38;45.11
50684;BME280;36654;45.042;38.994;2023-04-23T07:52:01;101314.56;;;17.33;45.38
50684;BME280;36654;45.042;38.994;2023-04-23T07:54:26;101320.72;;;17.46;45.58
50684;BME280;36654;45.042;38.994;2023-04-23T07:56:52;101278.00;;;17.26;45.82
50684;BME280;36654;45.042;38.994;2023-04-23T07:59:18;101330.53;;;17.44;45.84
50684;BME280;36654;45.042;38.994;2023-04-23T08:01:43;101321.66;;;17.40;46.23
50684;BME280;36654;45.042;38.994;2023-04-23T08:04:10;101321.66;;;17.40;46.22
50684;BME280;36654;45.042;38.994;2023-04-23T08:06:36;101315.28;;;17.54;46.13
50684;BME280;36654;45.042;38.994;2023-04-23T08:09:02;101311.66;;;17.61;46.27
50684;BME280;36654;45.042;38.994;2023-04-23T08:11:33;101308.97;;;17.61;45.83
50684;BME280;36654;45.042;38.994;2023-04-23T08:13:59;101312.56;;;17.60;46.05
50684;BME280;36654;45.042;38.994;2023-04-23T08:16:26;101316.97;;;17.65;46.02
50684;BME280;36654;45.042;38.994;2023-04-23T08:18:52;101306.97;;;17.84;45.30
50684;BME280;36654;45.042;38.994;2023-04-23T08:21:17;101302.25;;;18.11;44.88
50684;BME280;36654;45.042;38.994;2023-04-23T08:23:43;101306.41;;;18.37;44.42
50684;BME280;36654;45.042;38.994;2023-04-23T08:26:09;101294.50;;;18.62;42.79
50684;BME280;36654;45.042;38.994;2023-04-23T08:28:35;101275.69;;;18.62;41.93
50684;BME280;36654;45.042;38.994;2023-04-23T08:31:00;101291.72;;;18.68;41.29
50684;BME280;36654;45.042;38.994;2023-04-23T08:33:26;101243.06;;;18.23;41.63
50684;BME280;36654;45.042;38.994;2023-04-23T08:35:52;101295.47;;;18.55;42.08
50684;BME280;36654;45.042;38.994;2023-04-23T08:38:17;101287.22;;;18.69;42.31
50684;BME280;36654;45.042;38.994;2023-04-23T08:40:44;101279.38;;;18.52;43.43
50684;BME280;36654;45.042;38.994;2023-04-23T08:43:19;101289.47;;;18.31;44.46
50684;BME280;36654;45.042;38.994;2023-04-23T08:45:47;101263.00;;;18.02;44.58
50684;BME280;36654;45.042;38.994;2023-04-23T08:48:13;101280.00;;;18.03;45.35
50684;BME280;36654;45.042;38.994;2023-04-23T08:50:42;101284.56;;;17.93;45.83
50684;BME280;36654;45.042;38.994;2023-04-23T08:53:08;101274.66;;;18.00;45.35
50684;BME280;36654;45.042;38.994;2023-04-23T08:55:34;101270.88;;;18.16;44.66
50684;BME280;36654;45.042;38.994;2023-04-23T08:58:01;101262.88;;;18.15;43.70
50684;BME280;36654;45.042;38.994;2023-04-23T09:00:31;101285.00;;;18.33;43.21
50684;BME280;36654;45.042;38.994;2023-04-23T09:02:58;101266.81;;;18.57;42.88
50684;BME280;36654;45.042;38.994;2023-04-23T09:05:25;101275.41;;;18.84;41.60
50684;BME280;36654;45.042;38.994;2023-04-23T09:07:52;101271.59;;;19.00;41.40
50684;BME280;36654;45.042;38.994;2023-04-23T09:10:18;101260.56;;;19.18;41.04
50684;BME280;36654;45.042;38.994;2023-04-23T09:12:44;101265.78;;;19.28;40.83
50684;BME280;36654;45.042;38.994;2023-04-23T09:15:12;101262.34;;;19.20;41.10
50684;BME280;36654;45.042;38.994;2023-04-23T09:17:40;101267.09;;;19.02;41.97
50684;BME280;36654;45.042;38.994;2023-04-23T09:20:06;101261.16;;;18.79;42.69
50684;BME280;36654;45.042;38.994;2023-04-23T09:22:42;101261.25;;;18.69;43.32
50684;BME280;36654;45.042;38.994;2023-04-23T09:25:11;101267.75;;;18.51;43.69
50684;BME280;36654;45.042;38.994;2023-04-23T09:27:38;101263.53;;;18.32;44.57
50684;BME280;36654;45.042;38.994;2023-04-23T09:30:05;101261.06;;;18.15;45.04
50684;BME280;36654;45.042;38.994;2023-04-23T09:32:37;101251.34;;;18.05;44.99
50684;BME280;36654;45.042;38.994;2023-04-23T09:35:04;101254.72;;;18.22;44.88
50684;BME280;36654;45.042;38.994;2023-04-23T09:37:30;101247.41;;;18.33;44.68
50684;BME280;36654;45.042;38.994;2023-04-23T09:40:04;101249.94;;;18.47;44.84
50684;BME280;36654;45.042;38.994;2023-04-23T09:42:34;101248.25;;;18.39;45.18
50684;BME280;36654;45.042;38.994;2023-04-23T09:45:09;101238.50;;;18.33;45.07
50684;BME280;36654;45.042;38.994;2023-04-23T09:47:40;101165.66;;;17.93;44.69
50684;BME280;36654;45.042;38.994;2023-04-23T09:50:06;101196.78;;;18.06;43.96
50684;BME280;36654;45.042;38.994;2023-04-23T09:52:37;101243.69;;;18.44;44.19
50684;BME280;36654;45.042;38.994;2023-04-23T09:55:04;101232.81;;;18.56;44.18
50684;BME280;36654;45.042;38.994;2023-04-23T10:00:17;101191.13;;;18.91;42.21
50684;BME280;36654;45.042;38.994;2023-04-23T10:02:46;101228.25;;;19.22;41.63
50684;BME280;36654;45.042;38.994;2023-04-23T10:05:17;101228.31;;;19.18;41.95
50684;BME280;36654;45.042;38.994;2023-04-23T10:07:44;101228.00;;;19.37;41.72
50684;BME280;36654;45.042;38.994;2023-04-23T10:10:17;101222.56;;;19.40;41.08
50684;BME280;36654;45.042;38.994;2023-04-23T10:12:43;101217.19;;;19.40;41.47
50684;BME280;36654;45.042;38.994;2023-04-23T10:15:10;101225.13;;;19.48;41.16
50684;BME280;36654;45.042;38.994;2023-04-23T10:17:37;101219.22;;;19.26;40.48
50684;BME280;36654;45.042;38.994;2023-04-23T10:20:04;101218.72;;;19.02;40.62
50684;BME280;36654;45.042;38.994;2023-04-23T10:22:32;101228.56;;;19.03;41.10
50684;BME280;36654;45.042;38.994;2023-04-23T10:25:00;101221.97;;;19.23;41.22
50684;BME280;36654;45.042;38.994;2023-04-23T10:27:30;101190.59;;;19.25;40.97
50684;BME280;36654;45.042;38.994;2023-04-23T10:30:04;101224.03;;;19.59;41.45
50684;BME280;36654;45.042;38.994;2023-04-23T10:32:32;101216.75;;;19.65;40.98
50684;BME280;36654;45.042;38.994;2023-04-23T10:34:58;101209.28;;;19.82;40.99
50684;BME280;36654;45.042;38.994;2023-04-23T10:37:23;101216.25;;;19.92;40.70
50684;BME280;36654;45.042;38.994;2023-04-23T10:39:54;101226.63;;;20.11;40.20
50684;BME280;36654;45.042;38.994;2023-04-23T10:42:21;101214.22;;;20.03;40.41
50684;BME280;36654;45.042;38.994;2023-04-23T10:44:48;101217.03;;;19.97;40.66
50684;BME280;36654;45.042;38.994;2023-04-23T10:47:15;101209.16;;;19.88;40.55
50684;BME280;36654;45.042;38.994;2023-04-23T10:49:42;101178.31;;;19.58;40.75
50684;BME280;36654;45.042;38.994;2023-04-23T10:52:17;101213.66;;;19.88;41.31
50684;BME280;36654;45.042;38.994;2023-04-23T10:54:47;101222.47;;;19.94;40.80
50684;BME280;36654;45.042;38.994;2023-04-23T10:57:13;101209.84;;;19.98;40.38
50684;BME280;36654;45.042;38.994;2023-04-23T10:59:49;101221.97;;;20.19;40.10
50684;BME280;36654;45.042;38.994;2023-04-23T11:02:16;101193.88;;;20.32;40.07
50684;BME280;36654;45.042;38.994;2023-04-23T11:04:51;101207.25;;;20.37;39.20
50684;BME280;36654;45.042;38.994;2023-04-23T11:07:18;101207.34;;;20.32;38.90
50684;BME280;36654;45.042;38.994;2023-04-23T11:09:48;101193.09;;;20.27;38.70
50684;BME280;36654;45.042;38.994;2023-04-23T11:14:46;101196.47;;;20.37;38.52
50684;BME280;36654;45.042;38.994;2023-04-23T11:17:14;101192.75;;;20.42;38.06
50684;BME280;36654;45.042;38.994;2023-04-23T11:19:41;101154.75;;;20.16;38.25
50684;BME280;36654;45.042;38.994;2023-04-23T11:22:33;101168.53;;;20.00;38.97
50684;BME280;36654;45.042;38.994;2023-04-23T11:25:01;101191.09;;;19.93;39.58
50684;BME280;36654;45.042;38.994;2023-04-23T11:27:28;101138.81;;;19.61;40.14
50684;BME280;36654;45.042;38.994;2023-04-23T11:29:55;101170.81;;;19.77;39.96
50684;BME280;36654;45.042;38.994;2023-04-23T11:32:21;101175.09;;;19.87;39.17
50684;BME280;36654;45.042;38.994;2023-04-23T11:34:47;101143.00;;;19.78;38.86
50684;BME280;36654;45.042;38.994;2023-04-23T11:37:15;101158.81;;;19.93;38.71
50684;BME280;36654;45.042;38.994;2023-04-23T11:39:43;101166.72;;;20.01;38.55
50684;BME280;36654;45.042;38.994;2023-04-23T11:42:13;101165.84;;;20.02;38.10
50684;BME280;36654;45.042;38.994;2023-04-23T11:44:45;101172.81;;;20.09;37.82
50684;BME280;36654;45.042;38.994;2023-04-23T11:47:13;101166.31;;;20.21;39.26
50684;BME280;36654;45.042;38.994;2023-04-23T11:49:41;101163.69;;;20.18;39.49
50684;BME280;36654;45.042;38.994;2023-04-23T11:52:08;101165.78;;;20.03;39.61
50684;BME280;36654;45.042;38.994;2023-04-23T11:54:34;101165.16;;;19.91;39.45
50684;BME280;36654;45.042;38.994;2023-04-23T11:57:00;101162.63;;;19.81;39.33
50684;BME280;36654;45.042;38.994;2023-04-23T11:59:27;101126.97;;;19.72;39.38
50684;BME280;36654;45.042;38.994;2023-04-23T12:01:55;101163.06;;;20.05;39.17
50684;BME280;36654;45.042;38.994;2023-04-23T12:04:23;101156.72;;;20.08;38.67
50684;BME280;36654;45.042;38.994;2023-04-23T12:06:50;101147.81;;;20.06;38.85
50684;BME280;36654;45.042;38.994;2023-04-23T12:09:18;101147.72;;;20.09;38.74
50684;BME280;36654;45.042;38.994;2023-04-23T12:11:44;101142.50;;;20.02;38.65
50684;BME280;36654;45.042;38.994;2023-04-23T12:14:11;101160.47;;;20.00;38.31
50684;BME280;36654;45.042;38.994;2023-04-23T12:16:41;101152.81;;;19.80;38.61
50684;BME280;36654;45.042;38.994;2023-04-23T12:19:08;101151.38;;;19.61;38.81
50684;BME280;36654;45.042;38.994;2023-04-23T12:21:34;101165.53;;;19.72;38.75
50684;BME280;36654;45.042;38.994;2023-04-23T12:24:11;101151.94;;;19.80;37.81
50684;BME280;36654;45.042;38.994;2023-04-23T12:26:36;101158.84;;;19.92;38.33
50684;BME280;36654;45.042;38.994;2023-04-23T12:29:02;101150.72;;;19.95;38.34
50684;BME280;36654;45.042;38.994;2023-04-23T12:31:28;101139.91;;;19.96;38.56
50684;BME280;36654;45.042;38.994;2023-04-23T12:34:05;101149.63;;;20.03;38.31
50684;BME280;36654;45.042;38.994;2023-04-23T12:36:32;101148.91;;;19.95;38.97
50684;BME280;36654;45.042;38.994;2023-04-23T12:39:21;101162.56;;;19.86;38.67
50684;BME280;36654;45.042;38.994;2023-04-23T12:41:49;101156.53;;;19.75;38.74
50684;BME280;36654;45.042;38.994;2023-04-23T12:44:15;101155.78;;;19.65;38.92